createdAt,value
2023-04-16T00:00:03.338Z,10.40
2023-04-16T00:02:40.100Z,8.98
2023-04-16T00:05:09.954Z,9.00
2023-04-16T00:07:39.441Z,9.98
2023-04-16T00:10:09.449Z,10.38
2023-04-16T00:12:38.310Z,8.18
2023-04-16T00:15:09.496Z,7.32
2023-04-16T00:17:38.559Z,8.10
2023-04-16T00:20:09.313Z,7.93
2023-04-16T00:22:38.136Z,7.28
2023-04-16T00:25:07.513Z,6.78
2023-04-16T00:27:36.434Z,7.10
2023-04-16T00:30:06.037Z,6.50
2023-04-16T00:32:36.332Z,8.35
2023-04-16T00:35:05.633Z,9.27
2023-04-16T00:37:34.516Z,11.20
2023-04-16T00:40:03.369Z,11.20
2023-04-16T00:42:32.372Z,8.25
2023-04-16T00:45:01.314Z,7.18
2023-04-16T00:47:30.533Z,6.15
2023-04-16T00:50:00.750Z,6.18
2023-04-16T00:52:31.251Z,7.25
2023-04-16T00:55:00.427Z,5.50
2023-04-16T00:57:29.675Z,5.95
2023-04-16T00:59:59.528Z,5.05
2023-04-16T01:02:29.719Z,4.35
2023-04-16T01:05:04.745Z,4.35
2023-04-16T01:07:33.858Z,4.32
2023-04-16T01:10:03.225Z,4.00
2023-04-16T01:12:32.597Z,4.93
2023-04-16T01:15:02.076Z,4.38
2023-04-16T01:17:31.084Z,4.10
2023-04-16T01:20:00.776Z,4.43
2023-04-16T01:22:31.096Z,4.40
2023-04-16T01:24:59.897Z,4.25
2023-04-16T01:27:29.506Z,4.30
2023-04-16T01:29:58.369Z,4.25
2023-04-16T01:32:39.754Z,5.70
2023-04-16T01:35:08.914Z,5.55
2023-04-16T01:37:39.264Z,6.68
2023-04-16T01:40:09.265Z,5.45
2023-04-16T01:42:38.825Z,5.13
2023-04-16T01:45:08.858Z,5.50
2023-04-16T01:47:38.010Z,6.75
2023-04-16T01:50:07.954Z,6.22
2023-04-16T01:52:37.201Z,5.90
2023-04-16T01:55:08.311Z,4.53
2023-04-16T01:57:37.328Z,4.70
2023-04-16T02:00:07.474Z,4.10
2023-04-16T02:02:49.319Z,4.70
2023-04-16T02:05:27.039Z,4.35
2023-04-16T02:07:55.978Z,7.55
2023-04-16T02:10:26.228Z,6.22
2023-04-16T02:12:55.369Z,5.63
2023-04-16T02:15:25.444Z,5.43
2023-04-16T02:17:57.115Z,8.32
2023-04-16T02:20:27.652Z,11.38
2023-04-16T02:23:01.022Z,8.02
2023-04-16T02:25:31.826Z,8.55
2023-04-16T02:28:00.828Z,7.90
2023-04-16T02:30:37.839Z,7.10
2023-04-16T02:33:09.674Z,6.55
2023-04-16T02:35:41.587Z,8.27
2023-04-16T02:38:10.963Z,6.13
2023-04-16T02:40:41.326Z,7.03
2023-04-16T02:43:10.287Z,5.93
2023-04-16T02:45:39.295Z,5.70
2023-04-16T02:48:09.787Z,4.82
2023-04-16T02:50:38.643Z,4.53
2023-04-16T02:53:07.870Z,4.35
2023-04-16T02:55:36.809Z,4.63
2023-04-16T02:58:07.028Z,4.40
2023-04-16T03:00:36.107Z,4.22
2023-04-16T03:03:05.930Z,4.15
2023-04-16T03:05:34.850Z,4.05
2023-04-16T03:08:04.941Z,4.38
2023-04-16T03:10:35.040Z,4.45
2023-04-16T03:13:04.511Z,4.63
2023-04-16T03:15:34.913Z,5.30
2023-04-16T03:18:03.845Z,4.53
2023-04-16T03:20:32.796Z,3.97
2023-04-16T03:23:02.031Z,4.43
2023-04-16T03:25:30.840Z,4.15
2023-04-16T03:27:59.690Z,5.32
2023-04-16T03:30:28.618Z,4.55
2023-04-16T03:32:58.870Z,6.85
2023-04-16T03:35:27.792Z,6.68
2023-04-16T03:37:56.651Z,6.10
2023-04-16T03:40:25.628Z,5.65
2023-04-16T03:42:55.719Z,5.97
2023-04-16T03:45:24.739Z,6.18
2023-04-16T03:47:54.174Z,5.03
2023-04-16T03:50:27.127Z,5.05
2023-04-16T03:52:56.141Z,4.90
2023-04-16T03:55:25.031Z,5.47
2023-04-16T03:57:53.883Z,5.18
2023-04-16T04:00:23.087Z,5.03
2023-04-16T04:03:17.316Z,4.70
2023-04-16T04:05:49.630Z,4.93
2023-04-16T04:08:26.143Z,6.22
2023-04-16T04:10:55.415Z,6.78
2023-04-16T04:13:25.719Z,7.43
2023-04-16T04:15:55.563Z,9.25
2023-04-16T04:18:25.712Z,6.78
2023-04-16T04:20:57.263Z,8.77
2023-04-16T04:23:30.290Z,13.18
2023-04-16T04:25:59.529Z,10.52
2023-04-16T04:28:28.527Z,11.07
2023-04-16T04:30:57.973Z,7.93
2023-04-16T04:33:26.982Z,9.75
2023-04-16T04:35:57.320Z,8.55
2023-04-16T04:38:26.573Z,8.40
2023-04-16T04:40:55.830Z,8.55
2023-04-16T04:43:26.059Z,8.25
2023-04-16T04:45:54.916Z,8.80
2023-04-16T04:48:26.781Z,11.00
2023-04-16T04:50:58.023Z,10.32
2023-04-16T04:53:26.915Z,7.45
2023-04-16T04:55:58.739Z,5.88
2023-04-16T04:58:37.930Z,5.97
2023-04-16T05:01:07.101Z,6.00
2023-04-16T05:03:36.155Z,4.82
2023-04-16T05:06:06.524Z,6.07
2023-04-16T05:08:35.344Z,5.50
2023-04-16T05:11:04.565Z,6.47
2023-04-16T05:13:33.434Z,5.38
2023-04-16T05:16:02.239Z,5.90
2023-04-16T05:18:32.718Z,6.60
2023-04-16T05:21:02.035Z,5.00
2023-04-16T05:23:32.316Z,4.82
2023-04-16T05:26:01.107Z,6.35
2023-04-16T05:28:31.208Z,8.45
2023-04-16T05:31:00.068Z,10.75
2023-04-16T05:33:29.653Z,12.90
2023-04-16T05:35:58.874Z,14.52
2023-04-16T05:38:27.715Z,12.40
2023-04-16T05:40:59.503Z,10.40
2023-04-16T05:43:28.930Z,6.85
2023-04-16T05:45:57.835Z,7.90
2023-04-16T05:48:26.688Z,6.18
2023-04-16T05:50:55.496Z,7.13
2023-04-16T05:53:24.482Z,8.38
2023-04-16T05:55:53.380Z,8.43
2023-04-16T05:58:23.546Z,9.15
2023-04-16T06:00:52.504Z,5.25
2023-04-16T06:03:21.392Z,4.82
2023-04-16T06:05:50.592Z,4.15
2023-04-16T06:08:19.517Z,4.78
2023-04-16T06:10:48.948Z,5.35
2023-04-16T06:13:17.995Z,4.03
2023-04-16T06:15:48.274Z,4.55
2023-04-16T06:18:17.153Z,4.35
2023-04-16T06:20:46.012Z,4.63
2023-04-16T06:23:15.726Z,4.15
2023-04-16T06:25:44.518Z,4.30
2023-04-16T06:28:13.389Z,3.70
2023-04-16T06:30:44.059Z,3.22
2023-04-16T06:33:14.953Z,2.97
2023-04-16T06:35:43.753Z,5.63
2023-04-16T06:38:12.588Z,21.42
2023-04-16T06:40:41.713Z,4.10
2023-04-16T06:43:10.542Z,2.67
2023-04-16T06:45:39.377Z,5.55
2023-04-16T06:48:08.220Z,4.05
2023-04-16T06:50:38.479Z,3.83
2023-04-16T06:53:07.401Z,4.60
2023-04-16T06:55:36.265Z,3.55
2023-04-16T06:58:05.072Z,3.95
2023-04-16T07:00:33.988Z,3.28
2023-04-16T07:03:03.539Z,3.13
2023-04-16T07:05:33.692Z,2.28
2023-04-16T07:08:04.190Z,2.97
2023-04-16T07:10:33.031Z,2.72
2023-04-16T07:13:02.576Z,4.13
2023-04-16T07:15:31.434Z,2.13
2023-04-16T07:18:00.415Z,1.98
2023-04-16T07:20:29.694Z,2.55
2023-04-16T07:22:59.439Z,2.42
2023-04-16T07:25:29.649Z,2.20
2023-04-16T07:27:58.533Z,1.90
2023-04-16T07:30:32.724Z,2.90
2023-04-16T07:33:02.336Z,2.80
2023-04-16T07:35:31.316Z,1.73
2023-04-16T07:38:00.267Z,2.65
2023-04-16T07:40:31.500Z,2.20
2023-04-16T07:43:00.514Z,2.33
2023-04-16T07:45:29.796Z,2.03
2023-04-16T07:47:58.722Z,2.67
2023-04-16T07:50:27.684Z,1.48
2023-04-16T07:52:56.572Z,5.13
2023-04-16T07:55:25.515Z,2.58
2023-04-16T07:57:55.900Z,1.70
2023-04-16T08:00:24.812Z,1.52
2023-04-16T08:02:54.307Z,1.65
2023-04-16T08:05:23.375Z,2.92
2023-04-16T08:07:52.296Z,1.77
2023-04-16T08:10:21.290Z,1.08
2023-04-16T08:12:50.277Z,1.25
2023-04-16T08:15:20.787Z,1.20
2023-04-16T08:17:49.656Z,0.77
2023-04-16T08:20:19.393Z,1.63
2023-04-16T08:22:49.303Z,1.25
2023-04-16T08:25:18.244Z,0.90
2023-04-16T08:27:47.105Z,1.27
2023-04-16T08:30:16.858Z,1.40
2023-04-16T08:32:49.932Z,1.92
2023-04-16T08:35:19.101Z,2.03
2023-04-16T08:37:47.907Z,1.95
2023-04-16T08:40:16.778Z,1.67
2023-04-16T08:42:49.891Z,1.67
2023-04-16T08:45:19.197Z,1.27
2023-04-16T08:47:51.181Z,13.15
2023-04-16T08:50:26.088Z,2.63
2023-04-16T08:52:59.566Z,2.60
2023-04-16T08:55:38.218Z,2.08
2023-04-16T08:58:11.047Z,1.80
2023-04-16T09:00:41.183Z,3.83
2023-04-16T09:03:11.660Z,1.38
2023-04-16T09:05:41.002Z,0.80
2023-04-16T09:08:09.827Z,1.05
2023-04-16T09:10:38.715Z,4.43
2023-04-16T09:13:09.560Z,3.92
2023-04-16T09:15:39.101Z,1.08
2023-04-16T09:18:08.748Z,1.55
2023-04-16T09:20:39.135Z,3.83
2023-04-16T09:23:08.010Z,0.90
2023-04-16T09:25:37.412Z,1.35
2023-04-16T09:28:06.572Z,5.53
2023-04-16T09:30:37.224Z,1.10
2023-04-16T09:33:17.491Z,1.33
2023-04-16T09:35:49.369Z,1.40
2023-04-16T09:38:18.561Z,0.95
2023-04-16T09:40:48.575Z,1.38
2023-04-16T09:43:18.937Z,1.40
2023-04-16T09:45:51.889Z,0.82
2023-04-16T09:48:30.935Z,0.90
2023-04-16T09:51:02.166Z,1.25
2023-04-16T09:53:32.692Z,1.40
2023-04-16T09:56:03.330Z,1.15
2023-04-16T09:58:32.233Z,1.40
2023-04-16T10:01:04.098Z,0.73
2023-04-16T10:03:33.826Z,0.95
2023-04-16T10:06:09.353Z,1.02
2023-04-16T10:11:06.923Z,1.00
2023-04-16T10:13:35.834Z,0.98
2023-04-16T10:16:05.254Z,1.10
2023-04-16T10:18:35.474Z,1.00
2023-04-16T10:21:06.088Z,0.63
2023-04-16T10:23:35.766Z,1.42
2023-04-16T10:26:04.672Z,0.82
2023-04-16T10:28:35.441Z,1.50
2023-04-16T10:31:06.867Z,1.05
2023-04-16T10:33:37.721Z,0.65
2023-04-16T10:36:12.233Z,1.13
2023-04-16T10:38:42.231Z,1.90
2023-04-16T10:41:11.158Z,1.58
2023-04-16T10:43:42.164Z,0.80
2023-04-16T10:46:22.361Z,1.85
2023-04-16T10:48:53.750Z,2.10
2023-04-16T10:51:41.866Z,1.48
2023-04-16T10:54:26.487Z,1.17
2023-04-16T10:56:57.685Z,1.60
2023-04-16T10:59:31.243Z,1.23
2023-04-16T11:02:02.122Z,0.80
2023-04-16T11:04:35.565Z,1.20
2023-04-16T11:07:08.864Z,1.27
2023-04-16T11:09:46.551Z,1.02
2023-04-16T11:12:16.818Z,1.33
2023-04-16T11:14:49.200Z,1.33
2023-04-16T11:17:18.437Z,1.10
2023-04-16T11:19:47.996Z,1.30
2023-04-16T11:22:18.957Z,1.67
2023-04-16T11:24:48.605Z,1.00
2023-04-16T11:27:17.509Z,1.50
2023-04-16T11:29:47.553Z,2.38
2023-04-16T11:32:22.831Z,2.70
2023-04-16T11:37:33.125Z,0.98
2023-04-16T11:40:04.624Z,1.30
2023-04-16T11:42:34.211Z,1.48
2023-04-16T11:45:06.253Z,1.30
2023-04-16T11:47:45.473Z,1.23
2023-04-16T11:50:22.387Z,1.60
2023-04-16T11:52:54.704Z,1.48
2023-04-16T11:55:24.792Z,1.88
2023-04-16T11:57:53.705Z,1.80
2023-04-16T12:00:24.343Z,2.20
2023-04-16T12:02:55.315Z,1.83
2023-04-16T12:05:30.267Z,2.05
2023-04-16T12:08:02.083Z,1.25
2023-04-16T12:10:31.367Z,1.35
2023-04-16T12:13:12.669Z,1.65
2023-04-16T12:15:46.305Z,1.80
2023-04-16T12:18:16.216Z,1.00
2023-04-16T12:20:46.695Z,1.30
2023-04-16T12:23:26.865Z,1.23
2023-04-16T12:25:56.356Z,1.08
2023-04-16T12:28:29.879Z,1.10
2023-04-16T12:30:58.784Z,1.40
2023-04-16T12:33:27.702Z,1.90
2023-04-16T12:35:56.788Z,1.20
2023-04-16T12:38:27.066Z,0.90
2023-04-16T12:40:57.704Z,2.58
2023-04-16T12:43:26.758Z,2.50
2023-04-16T12:45:55.680Z,2.20
2023-04-16T12:48:24.523Z,1.30
2023-04-16T12:50:54.967Z,1.83
2023-04-16T12:53:23.998Z,2.85
2023-04-16T12:55:54.325Z,5.38
2023-04-16T12:58:23.151Z,4.35
2023-04-16T13:00:51.914Z,7.03
2023-04-16T13:03:22.141Z,4.82
2023-04-16T13:05:51.198Z,9.13
2023-04-16T13:08:20.110Z,3.13
2023-04-16T13:10:48.957Z,4.15
2023-04-16T13:13:19.193Z,1.35
2023-04-16T13:15:48.060Z,1.52
2023-04-16T13:18:16.948Z,1.58
2023-04-16T13:20:45.887Z,1.50
2023-04-16T13:23:14.739Z,1.90
2023-04-16T13:25:43.534Z,2.78
2023-04-16T13:28:12.371Z,2.40
2023-04-16T13:30:42.639Z,2.17
2023-04-16T13:33:12.226Z,5.03
2023-04-16T13:35:41.091Z,5.32
2023-04-16T13:38:09.936Z,6.90
2023-04-16T13:40:38.807Z,3.70
2023-04-16T13:43:07.880Z,6.35
2023-04-16T13:45:39.019Z,3.72
2023-04-16T13:48:09.230Z,3.67
2023-04-16T13:50:38.152Z,3.95
2023-04-16T13:53:06.972Z,3.35
2023-04-16T13:55:35.996Z,3.05
2023-04-16T13:58:04.878Z,3.38
2023-04-16T14:00:33.811Z,2.50
2023-04-16T14:03:03.378Z,2.63
2023-04-16T14:05:33.800Z,2.88
2023-04-16T14:08:03.784Z,2.03
2023-04-16T14:10:33.183Z,2.60
2023-04-16T14:13:02.050Z,2.30
2023-04-16T14:15:30.988Z,5.53
2023-04-16T14:18:01.223Z,2.85
2023-04-16T14:20:30.218Z,2.53
2023-04-16T14:23:00.492Z,1.75
2023-04-16T14:25:29.715Z,2.70
2023-04-16T14:27:59.924Z,2.22
2023-04-16T14:30:29.674Z,2.20
2023-04-16T14:32:59.488Z,1.23
2023-04-16T14:35:28.501Z,1.85
2023-04-16T14:37:57.903Z,3.35
2023-04-16T14:40:28.156Z,1.52
2023-04-16T14:42:57.035Z,1.50
2023-04-16T14:45:29.983Z,2.03
2023-04-16T14:47:58.914Z,1.50
2023-04-16T14:50:27.806Z,1.70
2023-04-16T14:52:57.034Z,1.85
2023-04-16T14:55:28.093Z,3.25
2023-04-16T14:57:57.460Z,4.18
2023-04-16T15:00:26.356Z,5.60
2023-04-16T15:02:55.441Z,9.77
2023-04-16T15:05:24.546Z,5.88
2023-04-16T15:07:53.856Z,3.72
2023-04-16T15:10:22.956Z,2.70
2023-04-16T15:12:53.195Z,5.63
2023-04-16T15:15:22.325Z,8.82
2023-04-16T15:17:52.083Z,12.77
2023-04-16T15:20:20.964Z,3.92
2023-04-16T15:22:49.749Z,3.38
2023-04-16T15:25:18.664Z,3.00
2023-04-16T15:27:47.549Z,4.30
2023-04-16T15:30:18.193Z,3.83
2023-04-16T15:32:47.130Z,1.92
2023-04-16T15:35:16.037Z,2.38
2023-04-16T15:37:44.837Z,2.33
2023-04-16T15:40:13.870Z,2.53
2023-04-16T15:42:44.574Z,3.45
2023-04-16T15:45:13.476Z,3.78
2023-04-16T15:47:45.418Z,4.50
2023-04-16T15:50:14.423Z,3.50
2023-04-16T15:52:43.312Z,3.65
2023-04-16T15:55:12.228Z,2.95
2023-04-16T15:57:41.172Z,4.35
2023-04-16T16:00:15.671Z,10.23
2023-04-16T16:02:47.234Z,7.22
2023-04-16T16:05:17.333Z,7.43
2023-04-16T16:07:46.436Z,9.38
2023-04-16T16:10:18.974Z,8.18
2023-04-16T16:12:48.223Z,4.10
2023-04-16T16:15:17.032Z,5.25
2023-04-16T16:17:47.312Z,4.65
2023-04-16T16:20:16.474Z,3.95
2023-04-16T16:22:46.746Z,3.42
2023-04-16T16:25:16.684Z,4.55
2023-04-16T16:27:45.614Z,2.95
2023-04-16T16:30:15.263Z,3.88
2023-04-16T16:32:44.479Z,5.15
2023-04-16T16:35:15.124Z,2.70
2023-04-16T16:37:43.952Z,6.00
2023-04-16T16:40:13.155Z,4.95
2023-04-16T16:42:42.124Z,3.50
2023-04-16T16:45:12.068Z,4.82
2023-04-16T16:47:40.984Z,5.38
2023-04-16T16:50:12.505Z,5.05
2023-04-16T16:52:42.675Z,5.43
2023-04-16T16:55:11.581Z,7.72
2023-04-16T16:57:40.449Z,8.13
2023-04-16T17:00:14.373Z,11.27
2023-04-16T17:02:43.934Z,4.45
2023-04-16T17:05:13.737Z,2.58
2023-04-16T17:07:44.001Z,2.83
2023-04-16T17:10:19.945Z,3.40
2023-04-16T17:12:49.360Z,5.25
2023-04-16T17:15:21.243Z,7.07
2023-04-16T17:17:51.014Z,7.53
2023-04-16T17:20:20.060Z,19.02
2023-04-16T17:22:51.204Z,12.07
2023-04-16T17:25:20.302Z,9.65
2023-04-16T17:27:49.161Z,8.35
2023-04-16T17:30:18.383Z,10.00
2023-04-16T17:32:47.324Z,6.72
2023-04-16T17:35:16.401Z,6.63
2023-04-16T17:37:45.259Z,7.13
2023-04-16T17:40:18.169Z,5.60
2023-04-16T17:42:47.180Z,5.50
2023-04-16T17:45:16.338Z,4.32
2023-04-16T17:47:45.364Z,4.47
2023-04-16T17:50:14.250Z,5.13
2023-04-16T17:52:43.215Z,5.25
2023-04-16T17:55:12.890Z,4.63
2023-04-16T17:57:44.726Z,4.47
2023-04-16T18:00:14.476Z,3.53
2023-04-16T18:02:43.690Z,4.10
2023-04-16T18:05:12.577Z,3.63
2023-04-16T18:07:41.589Z,3.55
2023-04-16T18:10:11.288Z,5.10
2023-04-16T18:12:40.283Z,5.05
2023-04-16T18:15:11.848Z,5.32
2023-04-16T18:17:40.730Z,5.28
2023-04-16T18:20:11.724Z,5.47
2023-04-16T18:22:40.590Z,7.85
2023-04-16T18:25:10.067Z,8.98
2023-04-16T18:27:39.896Z,9.95
2023-04-16T18:30:19.839Z,8.30
2023-04-16T18:33:11.414Z,9.10
2023-04-16T18:35:41.631Z,7.38
2023-04-16T18:38:10.515Z,7.70
2023-04-16T18:40:39.499Z,7.20
2023-04-16T18:43:08.344Z,8.43
2023-04-16T18:45:40.008Z,7.45
2023-04-16T18:48:08.987Z,8.82
2023-04-16T18:50:37.831Z,9.27
2023-04-16T18:53:06.720Z,8.77
2023-04-16T18:55:35.736Z,7.93
2023-04-16T18:58:04.520Z,7.82
2023-04-16T19:00:33.423Z,7.95
2023-04-16T19:03:07.164Z,10.40
2023-04-16T19:05:36.271Z,11.15
2023-04-16T19:08:05.412Z,10.10
2023-04-16T19:10:34.581Z,11.02
2023-04-16T19:13:03.677Z,8.15
2023-04-16T19:15:34.391Z,7.22
2023-04-16T19:18:05.443Z,11.52
2023-04-16T19:20:35.636Z,8.75
2023-04-16T19:23:05.762Z,8.13
2023-04-16T19:25:34.616Z,7.03
2023-04-16T19:28:03.814Z,7.13
2023-04-16T19:30:32.702Z,7.50
2023-04-16T19:33:02.101Z,6.78
2023-04-16T19:35:32.384Z,7.85
2023-04-16T19:38:01.277Z,6.97
2023-04-16T19:40:30.095Z,8.98
2023-04-16T19:42:58.913Z,10.10
2023-04-16T19:45:29.113Z,8.55
2023-04-16T19:47:58.099Z,7.72
2023-04-16T19:50:26.936Z,5.20
2023-04-16T19:52:57.188Z,5.63
2023-04-16T19:55:26.079Z,4.43
2023-04-16T19:57:54.840Z,3.42
2023-04-16T20:00:23.910Z,2.55
2023-04-16T20:02:52.859Z,2.60
2023-04-16T20:05:21.837Z,2.17
2023-04-16T20:07:52.601Z,2.58
2023-04-16T20:10:23.711Z,2.90
2023-04-16T20:12:52.583Z,2.95
2023-04-16T20:15:21.746Z,3.25
2023-04-16T20:17:50.860Z,2.80
2023-04-16T20:20:20.082Z,2.50
2023-04-16T20:22:48.909Z,2.95
2023-04-16T20:25:18.873Z,1.92
2023-04-16T20:27:49.158Z,3.13
2023-04-16T20:30:18.189Z,2.42
2023-04-16T20:32:47.511Z,2.55
2023-04-16T20:35:16.381Z,2.42
2023-04-16T20:37:45.255Z,2.53
2023-04-16T20:40:15.123Z,2.03
2023-04-16T20:42:46.320Z,2.90
2023-04-16T20:45:17.009Z,2.20
2023-04-16T20:47:45.973Z,2.33
2023-04-16T20:50:15.074Z,2.58
2023-04-16T20:52:43.899Z,2.88
2023-04-16T20:55:12.673Z,2.10
2023-04-16T20:57:41.468Z,2.03
2023-04-16T21:00:18.555Z,2.00
2023-04-16T21:02:48.875Z,2.42
2023-04-16T21:05:19.071Z,1.85
2023-04-16T21:07:48.116Z,1.80
2023-04-16T21:10:20.280Z,2.28
2023-04-16T21:12:49.459Z,2.15
2023-04-16T21:15:18.529Z,1.85
2023-04-16T21:17:48.910Z,2.00
2023-04-16T21:20:17.912Z,2.15
2023-04-16T21:22:46.695Z,1.67
2023-04-16T21:25:16.015Z,2.17
2023-04-16T21:27:44.899Z,2.47
2023-04-16T21:30:15.194Z,2.28
2023-04-16T21:32:44.069Z,2.08
2023-04-16T21:35:14.516Z,1.58
2023-04-16T21:37:43.416Z,1.92
2023-04-16T21:40:12.893Z,1.60
2023-04-16T21:42:42.394Z,1.73
2023-04-16T21:45:12.118Z,2.20
2023-04-16T21:47:41.202Z,1.77
2023-04-16T21:50:10.574Z,1.73
2023-04-16T21:52:46.133Z,1.75
2023-04-16T21:55:15.251Z,1.73
2023-04-16T21:57:44.056Z,1.85
2023-04-16T22:00:14.264Z,1.70
2023-04-16T22:02:43.539Z,1.67
2023-04-16T22:05:12.737Z,1.80
2023-04-16T22:07:42.922Z,2.00
2023-04-16T22:10:14.336Z,2.30
2023-04-16T22:12:44.878Z,1.67
2023-04-16T22:15:14.601Z,1.63
2023-04-16T22:17:43.553Z,2.08
2023-04-16T22:20:13.398Z,1.70
2023-04-16T22:22:44.092Z,1.55
2023-04-16T22:25:13.304Z,2.45
2023-04-16T22:27:42.169Z,2.67
2023-04-16T22:30:11.893Z,2.53
2023-04-16T22:32:41.362Z,2.38
2023-04-16T22:35:10.929Z,2.00
2023-04-16T22:37:39.777Z,2.42
2023-04-16T22:40:11.657Z,2.85
2023-04-16T22:42:40.525Z,2.42
2023-04-16T22:45:10.054Z,2.58
2023-04-16T22:47:39.021Z,2.65
2023-04-16T22:50:10.848Z,2.13
2023-04-16T22:52:39.832Z,1.58
2023-04-16T22:55:10.814Z,1.70
2023-04-16T22:57:39.591Z,2.33
2023-04-16T23:00:15.225Z,2.10
2023-04-16T23:02:44.322Z,2.42
2023-04-16T23:05:13.348Z,2.95
2023-04-16T23:07:42.171Z,1.75
2023-04-16T23:10:12.427Z,1.80
2023-04-16T23:12:41.284Z,1.70
2023-04-16T23:15:11.181Z,1.73
2023-04-16T23:17:40.105Z,2.20
2023-04-16T23:20:10.162Z,1.45
2023-04-16T23:22:39.023Z,4.03
2023-04-16T23:25:09.010Z,2.53
2023-04-16T23:27:39.747Z,1.90
2023-04-16T23:30:09.801Z,1.60
2023-04-16T23:32:38.809Z,2.13
2023-04-16T23:35:08.850Z,2.92
2023-04-16T23:37:37.659Z,2.63
2023-04-16T23:40:08.278Z,2.75
2023-04-16T23:42:37.191Z,3.55
2023-04-16T23:45:08.546Z,2.28
2023-04-16T23:47:37.429Z,3.13
2023-04-16T23:50:07.479Z,2.63
2023-04-16T23:52:36.431Z,3.33
2023-04-16T23:55:06.097Z,2.88
2023-04-16T23:57:34.972Z,4.20
